PHJR

Kalaeloa (John Rodgers Field) Airport

Kapolei, Hawaii, USA
PHJR 151134Z 1512/1612 04003KT P6SM FEW050 BKN250 FM152100 13006KT P6SM FEW050 BKN250 FM160100 04005KT P6SM SCT050 BKN150
Issued Valid From Valid To
Nov-15 @ 11:34 UTC
(an hour ago)
Nov-15 @ 12:00 UTC
(50 minutes ago)
Nov-16 @ 12:00 UTC
(in 23 hours)
Nov-15 @ 12:00 to Nov-15 @ 21:00
PHJR 151134Z 1512/1612 04003KT P6SM FEW050 BKN250
Wind Visibility Clouds
40° at 3 knots Greater than 6 miles
  • Few at 5,000' AGL
  • Broken at 25,000' AGL
From Nov-15 @ 21:00 to Nov-16 @ 01:00
FM152100 13006KT P6SM FEW050 BKN250
Wind Visibility Clouds
130° at 6 knots Greater than 6 miles
  • Few at 5,000' AGL
  • Broken at 25,000' AGL
From Nov-16 @ 01:00 to Nov-16 @ 12:00
FM160100 04005KT P6SM SCT050 BKN150
Wind Visibility Clouds
40° at 5 knots Greater than 6 miles
  • Scattered at 5,000' AGL
  • Broken at 15,000' AGL
PHJR 151134Z 1512/1612 04003KT P6SM FEW050 BKN250 FM152100 13006KT P6SM FEW050 BKN250 FM160100 04005KT P6SM SCT050 BKN150
Issued Nov-15 @ 11:34 UTC
(an hour ago)
Valid From Nov-15 @ 12:00 UTC
(50 minutes ago)
Valid To Nov-16 @ 12:00 UTC
(in 23 hours)
Nov-15 @ 12:00 - Nov-15 @ 21:00
Wind Visibility
40° at 3 knots Greater than 6 miles
Clouds
  • Few at 5,000' AGL
  • Broken at 25,000' AGL
From Nov-15 @ 21:00 - Nov-16 @ 01:00
Wind Visibility
130° at 6 knots Greater than 6 miles
Clouds
  • Few at 5,000' AGL
  • Broken at 25,000' AGL
From Nov-16 @ 01:00 - Nov-16 @ 12:00
Wind Visibility
40° at 5 knots Greater than 6 miles
Clouds
  • Scattered at 5,000' AGL
  • Broken at 15,000' AGL